»·PEaware :: UPS717 KSEA-KPDX

UPS717 :: KSEA-KPDX

FLIGHT INFORMATION

Flight Status: Arrived
Operator:
United Parcel Service
More flights by this operator :: More flights under this callsign
Pilot: Ty S. (2873)
Aircraft: Unknown
(B748)
More flights by this aircraft type
Origin: KSEA Seattle-Tacoma Intl
United States
Destination: KPDX Portland Intl
United States
More flights between these airports :: More routes between these airports
Route: +SEA7 BUWZO KRATR2
File this flight plan on PilotEdge
Remarks: PBN / A1B1D1O1S2 DOF / 190128 REG / N487SB OPR / UPS PER / D RMK / TCAS SIMBRIEF
Altitude:
(Current/Filed)
15,000ft
Speed:
(Current/Filed)
410kts
Departed: 28-Jan-19 04:17 PM
Arrived: 28-Jan-19 04:50 PM
Distance/Time
Traveled:
113nm/0:33
Distance/Time
To Go:
Arrived

Flight Plot

Page will automatically refresh every two minutes.

Flight plan parsing failed; only flown route is shown


Map Options




Map Legend


Flown Route
Filed Route
Departure Airport
Arrival Airport
Navaid (VOR, NDB)
Fix

Horizontal Profiles

Position Reports

Time Latitude Longitude Heading Altitude Ground
Speed
28-Jan-19 15:39 47.462500 -122.303865 359 448ft 0kts
28-Jan-19 15:40 47.462500 -122.303865 359 448ft 0kts
28-Jan-19 15:41 47.462500 -122.303865 359 448ft 0kts
28-Jan-19 15:42 47.462500 -122.303865 359 448ft 0kts
28-Jan-19 15:43 47.462500 -122.303865 359 448ft 0kts
28-Jan-19 15:44 47.462500 -122.303865 359 448ft 0kts
28-Jan-19 15:45 47.462500 -122.303865 359 448ft 0kts
28-Jan-19 15:46 47.462500 -122.303865 359 448ft 0kts
28-Jan-19 15:47 47.462500 -122.303865 359 448ft 0kts
28-Jan-19 15:48 47.462500 -122.303865 359 448ft 0kts
28-Jan-19 15:49 47.462500 -122.303865 359 448ft 0kts
28-Jan-19 15:50 47.462500 -122.303865 359 448ft 0kts
28-Jan-19 15:51 47.462500 -122.303865 359 448ft 0kts
28-Jan-19 15:52 47.462500 -122.303865 359 448ft 0kts
28-Jan-19 15:53 47.462500 -122.303865 359 448ft 0kts
28-Jan-19 15:54 47.462500 -122.303865 359 448ft 0kts
28-Jan-19 15:55 47.462500 -122.303865 359 448ft 0kts
28-Jan-19 15:56 47.462500 -122.303865 359 448ft 0kts
28-Jan-19 15:57 47.462500 -122.303865 359 448ft 0kts
28-Jan-19 15:58 47.462500 -122.303865 359 448ft 0kts
28-Jan-19 15:59 47.462500 -122.303865 359 448ft 0kts
28-Jan-19 16:00 47.462500 -122.303865 359 448ft 0kts
28-Jan-19 16:01 47.462500 -122.303865 359 448ft 0kts
28-Jan-19 16:02 47.462500 -122.303865 359 448ft 0kts
28-Jan-19 16:03 47.462409 -122.303864 0 448ft 2kts
28-Jan-19 16:04 47.461829 -122.303745 285 448ft 2kts
28-Jan-19 16:05 47.461835 -122.303151 270 448ft 0kts
28-Jan-19 16:06 47.461835 -122.303152 270 448ft 0kts
28-Jan-19 16:07 47.461835 -122.303152 270 448ft 0kts
28-Jan-19 16:08 47.461836 -122.303401 270 448ft 0kts
28-Jan-19 16:09 47.460031 -122.304971 179 448ft 17kts
28-Jan-19 16:10 47.454522 -122.304999 180 448ft 22kts
28-Jan-19 16:11 47.448978 -122.306278 182 448ft 16kts
28-Jan-19 16:12 47.443896 -122.306371 182 448ft 22kts
28-Jan-19 16:13 47.436927 -122.306415 179 448ft 14kts
28-Jan-19 16:14 47.432735 -122.305629 187 448ft 19kts
28-Jan-19 16:15 47.432264 -122.307914 347 448ft 11kts
28-Jan-19 16:16 47.456504 -122.307554 2 982ft 192kts
28-Jan-19 16:17 47.512269 -122.305616 0 4040ft 213kts
28-Jan-19 16:18 47.580847 -122.301753 10 6961ft 267kts
28-Jan-19 16:19 47.598517 -122.206095 105 10478ft 294kts
28-Jan-19 16:20 47.535478 -122.127101 181 12176ft 372kts
28-Jan-19 16:21 47.426365 -122.159674 195 14802ft 411kts
28-Jan-19 16:22 47.313068 -122.199025 193 14998ft 419kts
28-Jan-19 16:23 47.198942 -122.234234 193 14998ft 419kts
28-Jan-19 16:24 47.084466 -122.269179 193 14999ft 419kts
28-Jan-19 16:25 46.970337 -122.304103 192 14998ft 418kts
28-Jan-19 16:26 46.859933 -122.313839 179 14995ft 418kts
28-Jan-19 16:27 46.743358 -122.310012 179 14996ft 419kts
28-Jan-19 16:28 46.633689 -122.309051 180 13782ft 371kts
28-Jan-19 16:29 46.535985 -122.309092 180 12540ft 335kts
28-Jan-19 16:30 46.446981 -122.309086 180 11302ft 307kts
28-Jan-19 16:31 46.364949 -122.309087 180 10973ft 296kts
28-Jan-19 16:32 46.285370 -122.309104 180 10959ft 297kts
28-Jan-19 16:33 46.205628 -122.336213 202 11020ft 297kts
28-Jan-19 16:35 46.129135 -122.381325 203 11012ft 296kts
28-Jan-19 16:36 46.052955 -122.423119 200 10340ft 290kts
28-Jan-19 16:37 45.976702 -122.463762 200 9147ft 291kts
28-Jan-19 16:38 45.907138 -122.518116 219 7962ft 287kts
28-Jan-19 16:39 45.852323 -122.586985 223 6846ft 275kts
28-Jan-19 16:40 45.798005 -122.655723 221 5639ft 253kts
28-Jan-19 16:41 45.758893 -122.726589 276 4926ft 221kts
28-Jan-19 16:42 45.782969 -122.809023 294 3994ft 213kts
28-Jan-19 16:43 45.779052 -122.879862 198 3898ft 199kts
28-Jan-19 16:44 45.728149 -122.897706 183 2950ft 182kts
28-Jan-19 16:45 45.683441 -122.858597 138 2661ft 202kts
28-Jan-19 16:46 45.654343 -122.799924 111 2153ft 168kts
28-Jan-19 16:47 45.640597 -122.740659 107 1613ft 157kts
28-Jan-19 16:48 45.620916 -122.686320 120 1107ft 153kts
28-Jan-19 16:49 45.600602 -122.635171 119 293ft 145kts
28-Jan-19 16:50 45.586482 -122.599202 119 44ft 21kts
28-Jan-19 16:51 45.583294 -122.592614 200 44ft 16kts
28-Jan-19 16:52 45.586207 -122.601743 298 44ft 20kts
28-Jan-19 16:53 45.586465 -122.608597 235 44ft 11kts
28-Jan-19 16:53 45.584018 -122.610055 170 44ft 6kts
28-Jan-19 16:55 45.583665 -122.609672 133 44ft 0kts
28-Jan-19 16:56 45.583665 -122.609672 133 44ft 0kts
28-Jan-19 16:56 45.583665 -122.609672 133 44ft 0kts
28-Jan-19 16:57 45.583665 -122.609672 133 44ft 0kts
28-Jan-19 16:58 45.583665 -122.609672 133 44ft 0kts

Navigation Log

Ident Type
Flight plan parsing failed, navigation log unavailable